Time;durP1;ratioP1;P1;durP2;ratioP2;P2;SDS_P1;SDS_P2;PMS_P1;PMS_P2;Temp;Humidity;BMP_temperature;BMP_pressure;BME280_temperature;BME280_humidity;BME280_pressure;Samples;Min_cycle;Max_cycle;Signal;HPM_P1;HPM_P2
2022/04/12 00:01:37;;;;;;;40.25;23.90;;;103.10;2227.20;;;;;;4846868;29;20033;-84
2022/04/12 00:04:04;;;;;;;38.47;22.63;;;103.10;2227.20;;;;;;4864697;29;20037;-77
2022/04/12 00:06:29;;;;;;;16.92;10.23;;;103.00;2227.20;;;;;;4860581;29;20124;-81
2022/04/12 00:08:55;;;;;;;14.00;8.50;;;102.90;2227.20;;;;;;4849502;29;20060;-83
2022/04/12 00:11:21;;;;;;;28.05;12.25;;;102.90;2227.20;;;;;;4846573;29;20459;-80
2022/04/12 00:13:47;;;;;;;55.75;24.70;;;103.10;2227.20;;;;;;4862632;29;20033;-82
2022/04/12 00:16:13;;;;;;;38.05;18.40;;;103.00;2227.20;;;;;;4845976;29;20159;-82
2022/04/12 00:21:23;;;;;;;44.05;21.40;;;103.00;2227.20;;;;;;4862427;29;20032;-84
2022/04/12 00:23:49;;;;;;;35.55;18.67;;;102.90;2227.20;;;;;;4845723;29;20033;-80
2022/04/12 00:26:14;;;;;;;30.52;16.70;;;103.10;2227.20;;;;;;4845728;29;20044;-83
2022/04/12 00:28:43;;;;;;;31.63;17.30;;;103.20;2227.20;;;;;;4845819;29;20037;-83
2022/04/12 00:31:09;;;;;;;27.20;14.10;;;103.30;2227.20;;;;;;4845820;29;20063;-83
2022/04/12 00:33:35;;;;;;;30.10;13.93;;;128.10;2252.80;;;;;;4845410;29;20025;-83
2022/04/12 00:36:02;;;;;;;29.15;14.95;;;128.10;2252.80;;;;;;4845434;29;20086;-83
2022/04/12 00:38:33;;;;;;;19.83;12.75;;;103.10;2227.20;;;;;;4845634;29;20053;-83
2022/04/12 00:41:00;;;;;;;18.70;11.05;;;103.00;2227.20;;;;;;4845379;29;20029;-84
2022/04/12 00:43:28;;;;;;;21.88;13.00;;;102.70;2227.20;;;;;;4845624;29;20041;-84
2022/04/12 00:45:58;;;;;;;20.00;12.32;;;102.70;2227.20;;;;;;4845530;29;20038;-84
2022/04/12 00:48:23;;;;;;;22.02;11.68;;;102.90;2227.20;;;;;;4845072;29;20053;-84
2022/04/12 00:50:50;;;;;;;20.38;12.63;;;102.70;2227.20;;;;;;4845610;29;20088;-85
2022/04/12 00:53:16;;;;;;;23.88;12.30;;;102.80;2227.20;;;;;;4845387;29;20033;-84
2022/04/12 00:55:41;;;;;;;21.23;11.25;;;102.50;2227.20;;;;;;4845190;29;20029;-85
2022/04/12 00:58:08;;;;;;;20.45;11.95;;;102.40;2227.20;;;;;;4845422;29;20036;-83
2022/04/12 01:00:35;;;;;;;25.23;12.30;;;102.50;2227.20;;;;;;4845451;29;20033;-83
2022/04/12 01:03:01;;;;;;;23.02;13.32;;;102.50;2227.20;;;;;;4845148;29;20034;-86
2022/04/12 01:05:27;;;;;;;23.02;13.85;;;102.40;2227.20;;;;;;4845457;29;20040;-87
2022/04/12 01:07:54;;;;;;;23.83;11.55;;;102.40;2227.20;;;;;;4845411;29;20467;-84
2022/04/12 01:10:22;;;;;;;19.60;12.45;;;102.40;2227.20;;;;;;4844947;29;20116;-86
2022/04/12 01:12:50;;;;;;;35.05;16.35;;;77.60;2227.20;;;;;;4845195;29;20029;-84
2022/04/12 01:15:20;;;;;;;31.30;17.10;;;77.70;2227.20;;;;;;4845091;29;20493;-84
2022/04/12 01:17:46;;;;;;;26.75;17.15;;;77.70;2227.20;;;;;;4849004;29;20081;-84
2022/04/12 01:20:14;;;;;;;29.88;16.08;;;102.40;2227.20;;;;;;4849335;29;20036;-79
2022/04/12 01:22:50;;;;;;;26.27;16.38;;;77.70;2227.20;;;;;;4848839;29;20119;-84
2022/04/12 01:25:16;;;;;;;26.38;16.85;;;77.70;2227.20;;;;;;4848989;29;20038;-85
2022/04/12 01:27:42;;;;;;;28.48;16.35;;;77.60;2227.20;;;;;;4849086;29;20470;-83
2022/04/12 01:30:08;;;;;;;25.45;15.38;;;77.70;2227.20;;;;;;4848730;29;20116;-81
2022/04/12 01:32:34;;;;;;;24.05;14.52;;;102.40;2227.20;;;;;;4848729;29;20479;-84
2022/04/12 01:34:59;;;;;;;27.85;16.15;;;77.60;2227.20;;;;;;4848911;29;20116;-86
2022/04/12 01:37:25;;;;;;;23.88;15.55;;;77.60;2227.20;;;;;;4848556;29;20037;-85
2022/04/12 01:39:51;;;;;;;30.83;18.60;;;77.50;2227.20;;;;;;4848888;29;20089;-83
2022/04/12 01:42:17;;;;;;;31.73;18.42;;;77.40;2227.20;;;;;;4848580;29;20120;-84
2022/04/12 01:44:42;;;;;;;31.65;18.67;;;77.40;2227.20;;;;;;4848312;29;20094;-82
2022/04/12 01:47:08;;;;;;;30.60;19.45;;;77.40;2227.20;;;;;;4848381;29;20050;-82
2022/04/12 01:49:34;;;;;;;58.85;36.90;;;77.40;2227.20;;;;;;4848802;29;20030;-87
2022/04/12 01:52:03;;;;;;;37.15;25.63;;;77.30;2227.20;;;;;;4848129;29;20096;-85
2022/04/12 01:54:29;;;;;;;34.92;25.40;;;77.20;2227.20;;;;;;4848491;29;20038;-82
2022/04/12 01:56:55;;;;;;;39.25;23.45;;;77.40;2227.20;;;;;;4865004;29;20035;-84
2022/04/12 01:59:22;;;;;;;39.78;21.67;;;77.50;2227.20;;;;;;4848535;29;20042;-84
2022/04/12 02:01:48;;;;;;;52.58;26.05;;;77.50;2227.20;;;;;;4848522;29;20471;-83
2022/04/12 02:04:13;;;;;;;47.85;24.77;;;77.40;2227.20;;;;;;4848100;29;20089;-82
2022/04/12 02:06:39;;;;;;;51.83;32.75;;;77.40;2227.20;;;;;;4848412;29;20462;-83
2022/04/12 02:09:05;;;;;;;71.68;46.20;;;77.30;2227.20;;;;;;4865144;29;20098;-81
2022/04/12 02:11:30;;;;;;;38.13;27.80;;;77.30;2227.20;;;;;;4847983;29;20025;-84
2022/04/12 02:13:56;;;;;;;35.13;24.50;;;77.20;2227.20;;;;;;4848140;29;20483;-82
2022/04/12 02:16:23;;;;;;;39.45;26.33;;;77.20;2227.20;;;;;;4848185;29;20372;-83
2022/04/12 02:18:49;;;;;;;33.45;22.63;;;77.00;2227.20;;;;;;4847685;29;20026;-84
2022/04/12 02:21:14;;;;;;;31.58;20.17;;;77.10;2227.20;;;;;;4848188;29;20038;-82
2022/04/12 02:23:40;;;;;;;30.20;19.45;;;77.20;2227.20;;;;;;4848060;29;20037;-87
2022/04/12 02:26:06;;;;;;;28.38;17.50;;;77.10;2227.20;;;;;;4864615;29;20057;-82
2022/04/12 02:28:32;;;;;;;52.20;28.83;;;77.00;2227.20;;;;;;4847345;29;20449;-83
2022/04/12 02:30:58;;;;;;;33.33;21.23;;;76.90;2227.20;;;;;;4847795;29;20450;-83
2022/04/12 02:33:23;;;;;;;85.25;53.30;;;77.00;2227.20;;;;;;4847608;29;20068;-80
2022/04/12 02:35:49;;;;;;;39.15;25.13;;;77.10;2227.20;;;;;;4847966;29;20029;-86
2022/04/12 02:38:15;;;;;;;37.35;21.27;;;77.00;2227.20;;;;;;4847782;29;20033;-84
2022/04/12 02:40:41;;;;;;;56.78;31.85;;;77.00;2227.20;;;;;;4847516;29;20052;-82
2022/04/12 02:43:06;;;;;;;54.75;33.47;;;76.90;2227.20;;;;;;4847425;29;20112;-82
2022/04/12 02:45:32;;;;;;;33.03;19.05;;;77.00;2227.20;;;;;;4847691;29;20037;-81
2022/04/12 02:47:58;;;;;;;32.22;17.55;;;77.00;2227.20;;;;;;4847082;29;20053;-81
2022/04/12 02:50:23;;;;;;;27.00;17.35;;;77.10;2227.20;;;;;;4847714;29;20037;-84
2022/04/12 02:52:49;;;;;;;23.85;13.85;;;77.10;2227.20;;;;;;4847534;29;20383;-81
2022/04/12 02:55:15;;;;;;;28.98;16.20;;;77.10;2227.20;;;;;;4847481;29;20063;-83
2022/04/12 02:57:41;;;;;;;25.05;15.35;;;77.10;2227.20;;;;;;4847715;29;20022;-83
2022/04/12 03:00:07;;;;;;;24.85;14.90;;;77.30;2227.20;;;;;;4847267;29;20071;-82
2022/04/12 03:02:33;;;;;;;24.33;14.10;;;77.10;2227.20;;;;;;4847114;29;20056;-85
2022/04/12 03:04:58;;;;;;;24.98;13.60;;;77.30;2227.20;;;;;;4847233;29;20076;-83
2022/04/12 03:07:24;;;;;;;27.90;15.32;;;77.00;2227.20;;;;;;4846961;29;20090;-85
2022/04/12 03:09:50;;;;;;;31.25;14.95;;;76.90;2227.20;;;;;;4847150;29;20033;-83
2022/04/12 03:12:16;;;;;;;28.15;14.35;;;76.90;2227.20;;;;;;4847261;29;20037;-82
2022/04/12 03:14:41;;;;;;;30.27;16.55;;;76.90;2227.20;;;;;;4863531;29;20493;-86
2022/04/12 03:17:08;;;;;;;32.53;20.20;;;52.10;2227.20;;;;;;4848026;29;20041;-83
2022/04/12 03:19:34;;;;;;;64.57;30.65;;;76.80;2227.20;;;;;;4849748;29;20039;-82
2022/04/12 03:21:59;;;;;;;38.28;21.58;;;52.10;2227.20;;;;;;4847897;29;20113;-83
2022/04/12 03:24:26;;;;;;;43.30;23.25;;;52.10;2227.20;;;;;;4846846;29;20038;-83
2022/04/12 03:26:51;;;;;;;30.00;16.00;;;52.00;2227.20;;;;;;4847067;29;20530;-83
2022/04/12 03:29:18;;;;;;;21.98;12.57;;;51.90;2227.20;;;;;;4846960;29;20034;-84
2022/04/12 03:31:44;;;;;;;26.25;14.07;;;51.90;2227.20;;;;;;4847024;29;20037;-81
2022/04/12 03:34:10;;;;;;;71.63;36.20;;;51.80;2227.20;;;;;;4846930;29;20161;-87
2022/04/12 03:36:36;;;;;;;86.72;43.58;;;51.80;2227.20;;;;;;4849472;29;20029;-81
2022/04/12 03:39:04;;;;;;;98.72;48.42;;;51.60;2227.20;;;;;;4860846;29;20032;-79
2022/04/12 03:41:31;;;;;;;71.97;36.42;;;51.60;2227.20;;;;;;4848947;29;20089;-84
2022/04/12 03:43:56;;;;;;;55.85;31.00;;;51.70;2227.20;;;;;;4846560;29;20093;-83
2022/04/12 03:46:22;;;;;;;35.83;22.15;;;51.60;2227.20;;;;;;4864054;29;20033;-85
2022/04/12 03:48:48;;;;;;;39.10;23.40;;;51.60;2227.20;;;;;;4864313;29;20093;-84
2022/04/12 03:51:14;;;;;;;37.60;21.73;;;51.50;2227.20;;;;;;4866077;29;20382;-84
2022/04/12 03:53:40;;;;;;;33.72;21.70;;;51.50;2227.20;;;;;;4847798;29;20048;-84
2022/04/12 03:56:07;;;;;;;30.92;17.65;;;51.50;2227.20;;;;;;4846071;29;20029;-83
2022/04/12 03:58:36;;;;;;;33.13;20.27;;;51.50;2227.20;;;;;;4846393;29;20051;-83
2022/04/12 04:01:03;;;;;;;35.00;20.13;;;51.60;2227.20;;;;;;4846405;29;20058;-87
2022/04/12 04:03:29;;;;;;;40.00;21.98;;;51.50;2227.20;;;;;;4846049;29;20120;-83
2022/04/12 04:05:55;;;;;;;34.95;21.65;;;51.60;2227.20;;;;;;4846108;29;20032;-83
2022/04/12 04:08:21;;;;;;;45.40;26.45;;;51.60;2227.20;;;;;;4846131;29;20025;-81
2022/04/12 04:10:47;;;;;;;42.40;23.05;;;51.50;2227.20;;;;;;4846006;29;20033;-83
2022/04/12 04:13:14;;;;;;;26.15;14.77;;;51.50;2227.20;;;;;;4846214;29;20452;-83
2022/04/12 04:15:40;;;;;;;27.17;15.23;;;51.30;2227.20;;;;;;4846051;29;20116;-81
2022/04/12 04:18:09;;;;;;;29.98;18.08;;;51.30;2227.20;;;;;;4845819;29;20076;-86
2022/04/12 04:20:35;;;;;;;33.97;22.27;;;51.40;2227.20;;;;;;4845957;29;20029;-82
2022/04/12 04:23:02;;;;;;;37.80;23.83;;;51.40;2227.20;;;;;;4862739;29;20089;-84
2022/04/12 04:25:28;;;;;;;35.15;22.02;;;51.40;2227.20;;;;;;4845808;29;20045;-84
2022/04/12 04:27:55;;;;;;;31.60;18.75;;;51.60;2227.20;;;;;;4846054;29;20030;-85
2022/04/12 04:30:21;;;;;;;35.67;19.02;;;51.40;2227.20;;;;;;4845802;29;20116;-86
2022/04/12 04:32:48;;;;;;;34.83;19.13;;;51.60;2227.20;;;;;;4845801;29;20041;-88
2022/04/12 04:35:14;;;;;;;35.25;18.17;;;51.40;2227.20;;;;;;4845885;29;20037;-82
2022/04/12 04:37:48;;;;;;;34.15;19.23;;;51.60;2227.20;;;;;;4845758;29;20501;-82
2022/04/12 04:40:19;;;;;;;35.13;19.13;;;51.60;2227.20;;;;;;4845301;29;20080;-85
2022/04/12 04:42:46;;;;;;;32.90;19.02;;;51.70;2227.20;;;;;;4845676;29;20041;-82
2022/04/12 04:45:12;;;;;;;37.33;23.27;;;51.60;2227.20;;;;;;4845305;29;20043;-83
2022/04/12 04:48:07;;;;;;;54.83;35.05;;;51.30;2227.20;;;;;;4845424;29;20093;-84
2022/04/12 04:50:34;;;;;;;45.83;31.55;;;51.50;2227.20;;;;;;4849933;29;20038;-85
2022/04/12 04:53:02;;;;;;;45.70;26.83;;;51.40;2227.20;;;;;;4845418;29;20053;-84
2022/04/12 04:55:28;;;;;;;38.97;21.70;;;51.60;2227.20;;;;;;4845750;29;20041;-83
2022/04/12 04:57:58;;;;;;;41.17;21.83;;;51.60;2227.20;;;;;;4845631;29;20029;-85
2022/04/12 05:00:25;;;;;;;63.80;30.48;;;51.60;2227.20;;;;;;4845302;29;20033;-87
2022/04/12 05:02:55;;;;;;;60.40;32.10;;;51.70;2227.20;;;;;;4845379;29;20033;-85
2022/04/12 05:05:21;;;;;;;48.90;30.13;;;76.90;2227.20;;;;;;4845268;29;20041;-84
2022/04/12 05:07:49;;;;;;;52.13;31.80;;;51.80;2227.20;;;;;;4845263;29;20041;-84
2022/04/12 05:10:20;;;;;;;51.30;31.52;;;51.90;2227.20;;;;;;4845203;29;20040;-85
2022/04/12 05:12:46;;;;;;;44.78;26.98;;;51.80;2227.20;;;;;;4845490;29;20085;-85
2022/04/12 05:15:13;;;;;;;51.38;31.20;;;52.00;2227.20;;;;;;4845155;29;20038;-86
2022/04/12 05:17:39;;;;;;;42.75;24.48;;;52.10;2227.20;;;;;;4845434;29;20081;-86
2022/04/12 05:20:12;;;;;;;44.08;24.40;;;52.00;2227.20;;;;;;4845104;29;20061;-82
2022/04/12 05:22:37;;;;;;;37.58;24.40;;;52.10;2227.20;;;;;;4845202;29;20116;-86
2022/04/12 05:25:04;;;;;;;37.67;25.38;;;52.10;2227.20;;;;;;4844966;29;20136;-86
2022/04/12 05:27:34;;;;;;;38.22;26.75;;;77.00;2227.20;;;;;;4844798;29;20116;-84
2022/04/12 05:30:07;;;;;;;40.67;27.67;;;77.30;2227.20;;;;;;4845031;29;20391;-87
2022/04/12 05:32:33;;;;;;;41.95;28.83;;;77.30;2227.20;;;;;;4845221;29;20029;-82
2022/04/12 05:34:59;;;;;;;38.53;25.92;;;77.30;2227.20;;;;;;4845106;29;20140;-82
2022/04/12 05:37:25;;;;;;;42.03;26.77;;;77.30;2227.20;;;;;;4845139;29;20113;-84
2022/04/12 05:39:51;;;;;;;43.30;26.77;;;77.50;2227.20;;;;;;4845177;29;20053;-84
2022/04/12 05:42:16;;;;;;;42.60;29.00;;;77.70;2227.20;;;;;;4844781;29;20057;-86
2022/04/12 05:44:44;;;;;;;44.80;29.27;;;77.50;2227.20;;;;;;4845028;29;20068;-85
2022/04/12 05:47:13;;;;;;;44.65;27.80;;;77.60;2227.20;;;;;;4844762;29;20067;-83
2022/04/12 05:49:38;;;;;;;43.13;27.75;;;102.40;2227.20;;;;;;4844754;29;20029;-84
2022/04/12 05:52:05;;;;;;;48.35;29.77;;;102.50;2227.20;;;;;;4844979;29;20106;-85
2022/04/12 05:54:30;;;;;;;104.68;64.97;;;102.50;2227.20;;;;;;4844881;29;20038;-84
2022/04/12 05:56:56;;;;;;;60.08;40.50;;;102.60;2227.20;;;;;;4844765;29;20032;-83
2022/04/12 05:59:22;;;;;;;76.90;51.03;;;102.70;2227.20;;;;;;4844629;29;20085;-82
2022/04/12 06:01:49;;;;;;;69.22;45.35;;;102.60;2227.20;;;;;;4844873;29;20101;-84
2022/04/12 06:04:16;;;;;;;70.40;50.25;;;102.70;2227.20;;;;;;4847327;29;20042;-83
2022/04/12 06:06:42;;;;;;;32.60;19.85;;;102.80;2227.20;;;;;;4848353;29;20030;-83
2022/04/12 06:09:08;;;;;;;36.95;27.23;;;102.80;2227.20;;;;;;4848155;29;20030;-81
2022/04/12 06:11:34;;;;;;;47.20;31.20;;;102.80;2227.20;;;;;;4848375;29;20034;-81
2022/04/12 06:14:00;;;;;;;74.47;50.90;;;103.00;2227.20;;;;;;4848350;29;20077;-82
2022/04/12 06:16:26;;;;;;;40.40;26.60;;;103.00;2227.20;;;;;;4847963;29;20034;-82
2022/04/12 06:18:52;;;;;;;64.78;38.25;;;103.20;2227.20;;;;;;4848364;29;20025;-83
2022/04/12 06:21:19;;;;;;;60.75;34.40;;;103.10;2227.20;;;;;;4848179;29;20503;-84
2022/04/12 06:23:45;;;;;;;33.90;21.45;;;128.50;2252.80;;;;;;4847838;29;20157;-86
2022/04/12 06:26:11;;;;;;;39.30;22.20;;;128.10;2252.80;;;;;;4864793;29;20040;-84
2022/04/12 06:28:37;;;;;;;32.70;22.02;;;128.50;2252.80;;;;;;4848452;29;20121;-85
2022/04/12 06:31:03;;;;;;;29.27;20.25;;;128.70;2252.80;;;;;;4868102;29;20030;-82
2022/04/12 06:33:28;;;;;;;30.92;19.45;;;128.90;2252.80;;;;;;4851539;29;20073;-81
2022/04/12 06:35:54;;;;;;;19.95;13.18;;;153.70;2252.80;;;;;;4848048;29;20387;-82
2022/04/12 06:38:20;;;;;;;23.13;13.63;;;153.70;2252.80;;;;;;4847390;29;20026;-81
2022/04/12 06:40:49;;;;;;;18.33;12.35;;;153.80;2252.80;;;;;;4847705;29;20033;-83
2022/04/12 06:43:15;;;;;;;30.92;17.52;;;154.00;2252.80;;;;;;4847422;29;20038;-84
2022/04/12 06:45:41;;;;;;;26.83;17.80;;;154.00;2252.80;;;;;;4847390;29;20033;-84
2022/04/12 06:48:08;;;;;;;31.17;18.65;;;154.10;2252.80;;;;;;4847289;29;20060;-84
2022/04/12 06:50:34;;;;;;;29.13;19.33;;;154.30;2252.80;;;;;;4864101;29;20053;-83
2022/04/12 06:53:03;;;;;;;25.90;16.70;;;154.40;2252.80;;;;;;4847216;29;20587;-85
2022/04/12 06:55:29;;;;;;;25.02;14.00;;;179.20;2252.80;;;;;;4847429;29;20471;-83
2022/04/12 06:57:55;;;;;;;16.73;9.98;;;179.20;2252.80;;;;;;4847119;29;20039;-82
2022/04/12 07:00:21;;;;;;;25.08;14.35;;;179.30;2252.80;;;;;;4847208;29;20120;-85
2022/04/12 07:02:47;;;;;;;26.88;16.80;;;179.40;2252.80;;;;;;4847095;29;20120;-82
2022/04/12 07:05:12;;;;;;;20.52;11.07;;;179.60;2252.80;;;;;;4846996;29;20065;-82
2022/04/12 07:07:39;;;;;;;20.15;12.85;;;179.70;2252.80;;;;;;4847154;29;20467;-83
2022/04/12 07:10:07;;;;;;;25.25;12.57;;;179.80;2252.80;;;;;;4847113;29;20039;-82
2022/04/12 07:12:33;;;;;;;18.60;11.55;;;180.00;2252.80;;;;;;4863180;29;20067;-79
2022/04/12 07:14:59;;;;;;;20.05;11.52;;;180.10;2252.80;;;;;;4863008;29;20125;-80
2022/04/12 07:17:25;;;;;;;18.60;10.38;;;180.10;2252.80;;;;;;4847010;29;20036;-82
2022/04/12 07:19:50;;;;;;;15.65;10.98;;;204.80;2252.80;;;;;;4847101;29;20086;-84
2022/04/12 07:22:16;;;;;;;17.83;11.57;;;205.00;2252.80;;;;;;4847048;29;20060;-84
2022/04/12 07:24:42;;;;;;;19.45;10.77;;;205.10;2252.80;;;;;;4846805;29;20041;-85
2022/04/12 07:27:35;;;;;;;18.23;11.48;;;205.20;2252.80;;;;;;4846832;29;20026;-85
2022/04/12 07:30:05;;;;;;;;;;;205.30;2252.80;;;;;;4847558;29;20406;-84
2022/04/12 07:32:31;;;;;;;18.30;12.45;;;205.40;2227.20;;;;;;4847065;29;19961;-84
2022/04/12 07:34:56;;;;;;;19.27;10.40;;;205.50;2176.00;;;;;;4846452;29;20094;-86
2022/04/12 07:37:31;;;;;;;19.92;10.65;;;205.70;2201.60;;;;;;4846841;29;20023;-84
2022/04/12 07:40:36;;;;;;;18.38;11.07;;;230.60;2201.60;;;;;;4846437;29;20116;-85
2022/04/12 07:46:19;;;;;;;22.50;14.90;;;230.70;2150.40;;;;;;4862011;29;20056;-82
2022/04/12 07:48:45;;;;;;;21.17;13.02;;;230.80;2124.80;;;;;;4858073;29;20057;-83
2022/04/12 07:51:11;;;;;;;21.52;14.15;;;230.90;2099.20;;;;;;4862737;29;20033;-82
2022/04/12 07:53:37;;;;;;;24.02;13.90;;;231.00;2124.80;;;;;;4861427;29;20443;-86
2022/04/12 07:56:06;;;;;;;25.48;15.10;;;231.10;2099.20;;;;;;4861295;29;20082;-83
2022/04/12 07:58:32;;;;;;;20.15;14.10;;;231.30;2099.20;;;;;;4862910;29;20030;-81
2022/04/12 08:00:57;;;;;;;27.85;15.70;;;256.10;2073.60;;;;;;4857984;29;20113;-82
2022/04/12 08:03:23;;;;;;;21.85;15.23;;;256.30;2073.60;;;;;;4863940;29;20040;-81
2022/04/12 08:05:51;;;;;;;25.75;15.05;;;256.50;2048.00;;;;;;4864258;29;20035;-79
2022/04/12 08:08:17;;;;;;;17.15;10.82;;;256.90;2048.00;;;;;;4864006;29;20037;-81
2022/04/12 08:10:43;;;;;;;17.40;10.05;;;256.90;1971.20;;;;;;4881293;29;20036;-82
2022/04/12 08:13:09;;;;;;;15.75;10.05;;;281.60;1996.80;;;;;;4864373;29;20029;-80
2022/04/12 08:15:36;;;;;;;18.25;9.10;;;282.00;1996.80;;;;;;4864450;29;20044;-81
2022/04/12 08:18:04;;;;;;;16.85;8.10;;;282.00;1920.00;;;;;;4864357;29;20077;-81
2022/04/12 08:20:29;;;;;;;20.75;9.20;;;282.20;1894.40;;;;;;4864163;29;20422;-80
2022/04/12 08:22:56;;;;;;;11.20;7.13;;;282.40;1894.40;;;;;;4880488;29;20033;-82
2022/04/12 08:25:22;;;;;;;16.42;7.15;;;282.40;1920.00;;;;;;4863701;29;20060;-82
2022/04/12 08:27:48;;;;;;;13.90;9.25;;;307.20;1945.60;;;;;;4863958;29;20482;-80
2022/04/12 08:30:14;;;;;;;13.98;8.38;;;307.40;1945.60;;;;;;4863642;29;20032;-81
2022/04/12 08:32:40;;;;;;;21.35;13.43;;;307.50;1971.20;;;;;;4880488;29;20043;-80
2022/04/12 08:35:09;;;;;;;13.57;7.90;;;307.40;1945.60;;;;;;4880629;29;20122;-83
2022/04/12 08:37:35;;;;;;;15.80;7.75;;;307.70;1945.60;;;;;;4863738;29;20077;-81
2022/04/12 08:40:01;;;;;;;12.95;7.57;;;307.80;1920.00;;;;;;4863119;29;20390;-82
2022/04/12 08:42:26;;;;;;;14.00;5.88;;;308.00;1894.40;;;;;;4880177;29;20029;-81
2022/04/12 08:44:52;;;;;;;11.48;6.53;;;308.10;1843.20;;;;;;4880240;29;20048;-83
2022/04/12 08:47:19;;;;;;;8.70;5.30;;;332.80;1843.20;;;;;;4863771;29;20487;-83
2022/04/12 08:49:45;;;;;;;8.38;4.82;;;332.90;1868.80;;;;;;4863792;29;20061;-82
2022/04/12 08:52:13;;;;;;;13.10;5.40;;;332.90;1817.60;;;;;;4863464;29;20414;-82
2022/04/12 08:54:40;;;;;;;9.32;4.45;;;333.10;1843.20;;;;;;4863529;29;20068;-82
2022/04/12 08:57:06;;;;;;;9.07;3.97;;;333.20;1843.20;;;;;;4880122;29;20053;-80
2022/04/12 08:59:32;;;;;;;10.35;4.68;;;333.20;1843.20;;;;;;4880338;29;20063;-84
2022/04/12 09:01:58;;;;;;;10.40;4.40;;;333.30;1817.60;;;;;;4863695;29;20060;-82
2022/04/12 09:04:28;;;;;;;7.88;5.25;;;333.20;1792.00;;;;;;4863154;29;20051;-82
2022/04/12 09:06:58;;;;;;;8.48;4.60;;;333.20;1766.40;;;;;;4863499;29;20033;-79
2022/04/12 09:09:27;;;;;;;8.20;4.47;;;333.40;1792.00;;;;;;4863737;29;20036;-79
2022/04/12 09:12:02;;;;;;;8.60;5.35;;;333.40;1817.60;;;;;;4863493;29;20489;-81
2022/04/12 09:14:37;;;;;;;7.97;5.07;;;333.50;1817.60;;;;;;4863767;29;20120;-80
2022/04/12 09:17:04;;;;;;;11.02;5.43;;;358.40;1792.00;;;;;;4864624;29;20036;-80
2022/04/12 09:19:37;;;;;;;9.02;4.57;;;358.60;1792.00;;;;;;4880604;29;20040;-82
2022/04/12 09:22:10;;;;;;;8.32;4.45;;;358.70;1766.40;;;;;;4863774;29;20032;-81
2022/04/12 09:24:42;;;;;;;6.88;4.65;;;358.80;1740.80;;;;;;4880295;29;20033;-81
2022/04/12 09:27:12;;;;;;;8.50;3.60;;;358.80;1740.80;;;;;;4863301;29;20033;-83
2022/04/12 09:29:50;;;;;;;8.07;3.92;;;358.90;1740.80;;;;;;4863659;29;20089;-80
2022/04/12 09:32:18;;;;;;;6.82;4.47;;;359.00;1766.40;;;;;;4863258;29;20434;-82
2022/04/12 09:34:45;;;;;;;7.97;4.07;;;359.20;1740.80;;;;;;4880116;29;20037;-79
2022/04/12 09:37:17;;;;;;;9.30;5.85;;;359.30;1740.80;;;;;;4863851;29;20044;-82
2022/04/12 09:40:08;;;;;;;12.18;5.97;;;359.30;1715.20;;;;;;4867190;29;20033;-84
2022/04/12 09:42:54;;;;;;;7.55;3.80;;;384.20;1664.00;;;;;;4883284;29;20041;-78
2022/04/12 09:45:28;;;;;;;9.13;4.60;;;384.30;1638.40;;;;;;4872913;29;20037;-78
2022/04/12 09:47:56;;;;;;;8.50;4.20;;;384.40;1664.00;;;;;;4866614;29;20394;-80
2022/04/12 09:50:27;;;;;;;6.35;3.90;;;384.40;1612.80;;;;;;4866904;29;20444;-83
2022/04/12 09:53:00;;;;;;;10.48;4.45;;;384.70;1612.80;;;;;;4867077;29;20029;-80
2022/04/12 09:55:47;;;;;;;7.45;4.30;;;409.60;1664.00;;;;;;4883406;29;20123;-81
2022/04/12 09:58:14;;;;;;;9.32;4.63;;;409.80;1638.40;;;;;;4866849;29;20032;-80
2022/04/12 10:00:42;;;;;;;7.68;3.80;;;410.00;1612.80;;;;;;4883178;29;20112;-82
2022/04/12 10:03:09;;;;;;;6.90;3.80;;;410.20;1587.20;;;;;;4883576;29;20036;-81
2022/04/12 10:05:36;;;;;;;15.98;8.85;;;410.30;1536.00;;;;;;4883206;29;20045;-83
2022/04/12 10:08:06;;;;;;;5.78;3.45;;;435.30;1561.60;;;;;;4866208;29;20076;-82
2022/04/12 10:10:37;;;;;;;16.00;8.25;;;410.30;1510.40;;;;;;4866660;29;20029;-80
2022/04/12 10:13:04;;;;;;;18.75;12.07;;;435.20;1510.40;;;;;;4860939;29;20406;-80
2022/04/12 10:15:31;;;;;;;7.38;5.18;;;435.30;1561.60;;;;;;4849680;29;20034;-80
2022/04/12 10:17:57;;;;;;;8.93;5.25;;;435.20;1510.40;;;;;;4866124;29;20036;-79
2022/04/12 10:20:23;;;;;;;7.53;4.28;;;435.60;1561.60;;;;;;4866245;29;20029;-81
2022/04/12 10:22:49;;;;;;;10.52;4.57;;;435.80;1484.80;;;;;;4865979;29;20526;-80
2022/04/12 10:25:18;;;;;;;7.13;3.92;;;436.10;1459.20;;;;;;4865849;29;20040;-78
2022/04/12 10:27:45;;;;;;;6.63;4.18;;;436.10;1433.60;;;;;;4865971;29;20459;-78
2022/04/12 10:30:17;;;;;;;12.20;6.55;;;461.10;1484.80;;;;;;4865813;29;20045;-81
2022/04/12 10:33:06;;;;;;;8.93;3.90;;;461.10;1484.80;;;;;;4865983;29;20490;-81
2022/04/12 10:35:56;;;;;;;7.00;4.07;;;461.10;1433.60;;;;;;4866151;29;20470;-79
2022/04/12 10:38:23;;;;;;;8.07;5.38;;;461.60;1484.80;;;;;;4866411;29;20036;-82
2022/04/12 10:41:00;;;;;;;9.80;6.10;;;486.50;1484.80;;;;;;4865987;29;20033;-80
2022/04/12 10:43:33;;;;;;;7.10;5.07;;;486.60;1510.40;;;;;;4865894;29;20040;-80
2022/04/12 10:46:02;;;;;;;6.95;4.90;;;486.70;1459.20;;;;;;4905844;29;20034;-79
2022/04/12 10:48:29;;;;;;;7.05;4.65;;;486.90;1433.60;;;;;;4877732;29;20053;-79
2022/04/12 10:50:58;;;;;;;7.80;5.40;;;487.10;1433.60;;;;;;4865868;29;20036;-78
2022/04/12 10:53:38;;;;;;;7.40;4.20;;;487.30;1459.20;;;;;;4882447;29;20029;-79
2022/04/12 10:56:10;;;;;;;7.13;4.20;;;512.10;1408.00;;;;;;4865252;29;20037;-79
2022/04/12 10:58:36;;;;;;;9.52;4.95;;;487.30;1408.00;;;;;;4881978;29;20401;-80
2022/04/12 11:01:04;;;;;;;7.20;4.47;;;487.30;1408.00;;;;;;4865438;29;20041;-77
2022/04/12 11:03:42;;;;;;;9.60;5.63;;;512.20;1382.40;;;;;;4865224;29;20125;-79
2022/04/12 11:06:12;;;;;;;12.25;5.60;;;512.70;1408.00;;;;;;4865500;29;20377;-83
2022/04/12 11:08:38;;;;;;;10.88;5.93;;;512.90;1382.40;;;;;;4860590;29;20036;-79
2022/04/12 11:11:04;;;;;;;7.35;4.25;;;537.60;1408.00;;;;;;4862809;29;20465;-79
2022/04/12 11:13:37;;;;;;;7.18;4.28;;;537.80;1356.80;;;;;;4865117;29;20541;-80
2022/04/12 11:16:08;;;;;;;;;;;538.00;1382.40;;;;;;4865523;29;20032;-79
2022/04/12 11:18:53;;;;;;;8.52;4.00;;;538.00;1382.40;;;;;;4881302;29;19954;-80
2022/04/12 11:21:21;;;;;;;7.60;4.28;;;512.60;1331.20;;;;;;4864951;29;20025;-79
2022/04/12 11:23:55;;;;;;;6.30;3.47;;;512.50;1356.80;;;;;;4864966;29;20037;-79
2022/04/12 11:26:47;;;;;;;7.85;4.20;;;512.40;1331.20;;;;;;4881417;29;20100;-80
2022/04/12 11:29:26;;;;;;;8.60;3.20;;;512.40;1331.20;;;;;;4881504;29;20029;-80
2022/04/12 11:31:54;;;;;;;8.82;4.28;;;512.60;1356.80;;;;;;4864737;29;20033;-79
2022/04/12 11:34:21;;;;;;;9.77;4.13;;;512.60;1331.20;;;;;;4864556;29;20044;-79
2022/04/12 11:36:51;;;;;;;10.57;6.28;;;512.70;1331.20;;;;;;4881437;29;20060;-81
2022/04/12 11:39:18;;;;;;;8.25;5.15;;;537.70;1356.80;;;;;;4863909;29;20040;-78
2022/04/12 11:41:44;;;;;;;5.68;3.50;;;537.80;1356.80;;;;;;4864578;29;20085;-79
2022/04/12 11:44:10;;;;;;;7.57;4.20;;;537.70;1305.60;;;;;;4864450;29;20426;-80
2022/04/12 11:46:36;;;;;;;11.20;6.97;;;512.70;1305.60;;;;;;4864209;29;20112;-78
2022/04/12 11:49:27;;;;;;;10.25;5.95;;;537.90;1331.20;;;;;;4864343;29;20390;-80
2022/04/12 11:51:53;;;;;;;6.43;3.67;;;563.20;1331.20;;;;;;4881420;29;20036;-79
2022/04/12 11:54:31;;;;;;;7.57;3.08;;;563.50;1305.60;;;;;;4863967;29;20037;-79
2022/04/12 11:57:24;;;;;;;7.15;3.95;;;538.50;1254.40;;;;;;4880997;29;20037;-80
2022/04/12 11:59:59;;;;;;;13.40;9.15;;;588.90;1305.60;;;;;;4878581;29;20040;-79
2022/04/12 12:02:30;;;;;;;5.20;2.78;;;563.70;1280.00;;;;;;4863817;29;20037;-77
2022/04/12 12:05:01;;;;;;;6.85;3.97;;;563.70;1280.00;;;;;;4864295;29;20037;-82
2022/04/12 12:07:49;;;;;;;9.68;6.10;;;538.50;1280.00;;;;;;4863648;29;20084;-80
2022/04/12 12:10:52;;;;;;;9.15;5.25;;;538.50;1305.60;;;;;;4863424;29;20063;-79
2022/04/12 12:13:35;;;;;;;7.07;4.35;;;563.90;1331.20;;;;;;4863503;29;20092;-81
2022/04/12 12:27:11;;;;;;;8.63;5.10;;;589.00;1254.40;;;;;;4832504;29;20041;-81
2022/04/12 12:29:38;;;;;;;6.78;4.55;;;589.10;1305.60;;;;;;4826211;29;20042;-81
2022/04/12 12:35:47;;;;;;;5.13;3.50;;;589.60;1228.80;;;;;;4863224;29;20548;-83